Time;durP1;ratioP1;P1;durP2;ratioP2;P2;SDS_P1;SDS_P2;PMS_P1;PMS_P2;Temp;Humidity;BMP_temperature;BMP_pressure;BME280_temperature;BME280_humidity;BME280_pressure;Samples;Min_cycle;Max_cycle;Signal;HPM_P1;HPM_P2
2023/05/23 00:02:08;;;;;;;19.30;12.70;;;18.00;67.00;;;;;;5036532;28;20204;-69
2023/05/23 00:04:35;;;;;;;19.65;12.95;;;18.00;67.60;;;;;;5036341;28;20037;-66
2023/05/23 00:07:02;;;;;;;19.25;11.57;;;17.90;68.00;;;;;;5036680;28;20395;-68
2023/05/23 00:09:29;;;;;;;17.10;12.00;;;17.90;67.40;;;;;;5036898;28;20029;-67
2023/05/23 00:11:54;;;;;;;16.67;11.85;;;17.90;67.40;;;;;;5036602;28;20025;-69
2023/05/23 00:14:20;;;;;;;16.38;11.90;;;17.90;67.30;;;;;;5036209;28;20506;-66
2023/05/23 00:16:48;;;;;;;15.95;11.60;;;17.90;67.30;;;;;;5036240;28;20033;-66
2023/05/23 00:19:15;;;;;;;18.10;12.40;;;17.90;67.30;;;;;;5036442;28;20072;-66
2023/05/23 00:21:48;;;;;;;16.33;11.38;;;17.90;67.70;;;;;;5036112;28;20407;-68
2023/05/23 00:24:17;;;;;;;18.92;13.38;;;17.80;67.50;;;;;;5035966;28;20155;-68
2023/05/23 00:26:44;;;;;;;17.02;12.15;;;17.80;67.70;;;;;;5035930;28;20362;-68
2023/05/23 00:29:15;;;;;;;16.80;12.05;;;17.70;67.60;;;;;;5035940;28;20055;-67
2023/05/23 00:31:45;;;;;;;15.88;11.15;;;17.70;67.70;;;;;;5036218;28;20053;-68
2023/05/23 00:34:17;;;;;;;14.48;10.32;;;17.70;67.20;;;;;;5035822;28;20353;-67
2023/05/23 00:36:46;;;;;;;13.97;9.90;;;17.60;66.90;;;;;;5036511;28;20064;-68
2023/05/23 00:39:18;;;;;;;17.63;10.18;;;17.70;66.90;;;;;;5035776;28;20117;-68
2023/05/23 00:41:48;;;;;;;16.02;10.45;;;17.70;66.80;;;;;;5036430;28;20080;-68
2023/05/23 00:44:15;;;;;;;15.65;9.82;;;17.70;66.50;;;;;;5036611;28;20030;-68
2023/05/23 00:46:46;;;;;;;14.32;9.55;;;17.70;66.60;;;;;;5034764;28;20021;-67
2023/05/23 00:49:12;;;;;;;19.52;12.13;;;17.70;66.50;;;;;;5036220;28;20435;-67
2023/05/23 00:51:38;;;;;;;17.08;11.38;;;17.70;66.60;;;;;;5035633;28;20481;-67
2023/05/23 00:54:04;;;;;;;17.90;12.98;;;17.70;67.20;;;;;;5035514;28;20057;-68
2023/05/23 00:56:31;;;;;;;17.27;10.75;;;17.60;66.80;;;;;;5035493;28;20108;-67
2023/05/23 00:58:59;;;;;;;15.35;10.80;;;17.70;67.50;;;;;;5036065;28;20112;-66
2023/05/23 01:01:26;;;;;;;17.65;11.20;;;17.60;67.00;;;;;;5035497;28;20026;-68
2023/05/23 01:03:52;;;;;;;13.85;9.63;;;17.60;67.00;;;;;;5035236;28;20086;-68
2023/05/23 01:06:19;;;;;;;14.88;10.60;;;17.60;66.90;;;;;;5035905;28;20068;-68
2023/05/23 01:08:45;;;;;;;14.15;10.65;;;17.50;67.20;;;;;;5035898;28;20018;-68
2023/05/23 01:11:42;;;;;;;14.35;10.25;;;17.50;67.00;;;;;;5035350;28;20022;-67
2023/05/23 01:14:27;;;;;;;15.77;10.65;;;17.50;67.20;;;;;;5035196;28;20375;-68
2023/05/23 01:16:59;;;;;;;14.13;9.60;;;17.50;67.20;;;;;;5035588;28;20079;-67
2023/05/23 01:19:40;;;;;;;14.27;9.50;;;17.50;67.00;;;;;;5035566;28;20032;-67
2023/05/23 01:22:43;;;;;;;12.93;9.35;;;17.50;67.00;;;;;;5035171;28;20124;-69
2023/05/23 01:25:11;;;;;;;12.15;8.60;;;17.50;67.00;;;;;;4974670;28;20047;-68
2023/05/23 01:27:59;;;;;;;14.70;9.50;;;17.50;67.00;;;;;;4974973;28;20034;-67
2023/05/23 01:30:29;;;;;;;13.68;9.52;;;17.50;67.00;;;;;;4975201;28;20043;-68
2023/05/23 01:32:57;;;;;;;13.52;9.32;;;17.40;66.90;;;;;;4974669;28;20488;-67
2023/05/23 01:35:26;;;;;;;13.75;9.27;;;17.40;66.70;;;;;;4974561;28;20043;-68
2023/05/23 01:37:56;;;;;;;14.20;9.10;;;17.40;66.80;;;;;;4974844;28;20026;-68
2023/05/23 01:40:23;;;;;;;15.15;10.27;;;17.40;66.90;;;;;;4974811;28;20065;-68
2023/05/23 01:42:50;;;;;;;17.75;11.68;;;17.40;67.00;;;;;;4974659;28;20130;-68
2023/05/23 01:45:17;;;;;;;15.02;10.25;;;17.30;67.20;;;;;;4974486;28;20066;-69
2023/05/23 01:47:43;;;;;;;17.42;11.82;;;17.20;67.70;;;;;;4974528;28;20023;-68
2023/05/23 01:50:10;;;;;;;17.48;12.02;;;17.20;67.50;;;;;;4974782;28;20035;-66
2023/05/23 01:52:36;;;;;;;14.85;10.25;;;17.20;68.60;;;;;;4974496;28;20445;-67
2023/05/23 01:55:08;;;;;;;12.85;8.93;;;17.10;68.10;;;;;;4974315;28;20038;-66
2023/05/23 01:57:36;;;;;;;13.80;9.15;;;17.10;68.00;;;;;;4976957;28;20030;-67
2023/05/23 02:00:05;;;;;;;13.52;10.30;;;17.10;68.00;;;;;;4978254;28;20105;-67
2023/05/23 02:02:33;;;;;;;16.08;10.10;;;17.00;68.10;;;;;;5034195;28;20419;-69
2023/05/23 02:04:58;;;;;;;14.32;10.15;;;17.00;68.00;;;;;;5038784;28;20103;-66
2023/05/23 02:07:24;;;;;;;13.77;9.90;;;17.00;68.20;;;;;;5039209;28;20061;-69
2023/05/23 02:09:50;;;;;;;14.90;9.23;;;17.00;68.30;;;;;;5038658;28;20018;-66
2023/05/23 02:12:16;;;;;;;17.92;10.38;;;16.90;68.30;;;;;;5038596;28;20453;-66
2023/05/23 02:14:42;;;;;;;13.68;9.00;;;16.90;68.20;;;;;;5038769;28;20038;-69
2023/05/23 02:17:11;;;;;;;13.35;9.50;;;16.90;68.20;;;;;;5038503;28;20032;-67
2023/05/23 02:19:37;;;;;;;13.32;8.75;;;16.90;68.40;;;;;;5038414;28;20063;-68
2023/05/23 02:22:03;;;;;;;11.90;8.95;;;16.90;68.40;;;;;;5038440;28;20030;-69
2023/05/23 02:24:28;;;;;;;13.90;9.30;;;16.90;68.30;;;;;;5038036;28;20450;-67
2023/05/23 02:26:54;;;;;;;12.88;8.35;;;16.80;68.40;;;;;;5038594;28;20057;-68
2023/05/23 02:29:21;;;;;;;15.20;8.60;;;16.80;68.40;;;;;;5038550;28;20316;-68
2023/05/23 02:31:46;;;;;;;14.15;8.10;;;16.80;68.40;;;;;;5038502;28;20192;-68
2023/05/23 02:34:12;;;;;;;13.15;8.90;;;16.80;68.40;;;;;;5041467;28;20374;-68
2023/05/23 02:36:39;;;;;;;13.02;8.32;;;16.80;68.50;;;;;;5041752;28;20346;-67
2023/05/23 02:39:05;;;;;;;13.38;9.23;;;16.80;68.50;;;;;;5040963;28;20044;-68
2023/05/23 02:41:31;;;;;;;13.57;8.27;;;16.80;68.50;;;;;;5038803;28;20112;-68
2023/05/23 02:43:58;;;;;;;13.13;8.45;;;16.80;68.50;;;;;;5038097;28;20026;-68
2023/05/23 02:46:23;;;;;;;13.18;8.15;;;16.80;68.50;;;;;;5038472;28;20040;-68
2023/05/23 02:48:49;;;;;;;16.33;9.73;;;16.80;68.40;;;;;;5037933;28;20351;-68
2023/05/23 02:51:15;;;;;;;11.82;8.18;;;16.80;68.50;;;;;;5037835;28;20351;-67
2023/05/23 02:53:41;;;;;;;11.02;7.90;;;16.80;68.50;;;;;;5038071;28;20070;-69
2023/05/23 02:56:08;;;;;;;12.15;8.52;;;16.80;68.50;;;;;;5037723;28;20104;-68
2023/05/23 02:58:34;;;;;;;12.93;8.88;;;16.80;68.60;;;;;;5037725;28;20033;-69
2023/05/23 03:01:03;;;;;;;13.85;8.40;;;16.80;68.70;;;;;;5037944;28;20053;-68
2023/05/23 03:03:30;;;;;;;12.68;8.40;;;16.70;68.60;;;;;;5037835;28;20108;-67
2023/05/23 03:05:57;;;;;;;12.18;8.32;;;16.70;68.90;;;;;;5037768;28;20053;-67
2023/05/23 03:08:23;;;;;;;13.88;8.57;;;16.60;68.70;;;;;;5036291;28;20036;-68
2023/05/23 03:10:49;;;;;;;12.52;8.20;;;16.60;68.80;;;;;;5037771;28;20435;-68
2023/05/23 03:13:16;;;;;;;15.10;8.80;;;16.60;68.90;;;;;;5037415;28;20041;-68
2023/05/23 03:15:42;;;;;;;11.82;8.10;;;16.60;68.90;;;;;;5037354;28;20024;-69
2023/05/23 03:18:07;;;;;;;17.13;10.43;;;16.50;68.90;;;;;;5037323;28;20026;-69
2023/05/23 03:20:33;;;;;;;12.50;8.85;;;16.50;69.00;;;;;;5037852;28;20021;-67
2023/05/23 03:23:00;;;;;;;13.75;9.07;;;16.50;68.90;;;;;;5037466;28;20061;-66
2023/05/23 03:25:25;;;;;;;15.40;9.88;;;16.50;69.00;;;;;;5037305;28;20045;-68
2023/05/23 03:27:51;;;;;;;14.50;9.88;;;16.50;69.30;;;;;;5037472;28;20041;-69
2023/05/23 03:30:17;;;;;;;13.55;9.50;;;16.50;69.50;;;;;;5037647;28;20033;-68
2023/05/23 03:32:43;;;;;;;13.38;8.68;;;16.40;69.40;;;;;;5037112;28;20053;-68
2023/05/23 03:35:10;;;;;;;11.40;8.82;;;16.40;69.40;;;;;;5037123;28;20025;-69
2023/05/23 03:37:36;;;;;;;16.38;10.45;;;16.40;69.30;;;;;;5037256;28;20030;-66
2023/05/23 03:40:02;;;;;;;18.52;11.35;;;16.30;69.50;;;;;;5037269;28;20025;-66
2023/05/23 03:42:28;;;;;;;18.08;11.32;;;16.30;69.90;;;;;;5035995;28;20121;-67
2023/05/23 03:44:54;;;;;;;14.95;11.23;;;16.30;69.70;;;;;;5037045;28;20099;-67
2023/05/23 03:47:20;;;;;;;16.20;10.27;;;16.30;69.80;;;;;;5036825;28;20434;-69
2023/05/23 03:49:46;;;;;;;14.40;9.48;;;16.30;69.90;;;;;;5036837;28;20041;-66
2023/05/23 03:52:12;;;;;;;14.95;11.02;;;16.30;69.80;;;;;;5036745;28;20061;-66
2023/05/23 03:54:38;;;;;;;13.70;9.88;;;16.30;69.90;;;;;;5036655;28;20021;-69
2023/05/23 03:57:04;;;;;;;15.70;10.88;;;16.30;69.90;;;;;;5036654;28;20401;-68
2023/05/23 03:59:30;;;;;;;14.70;9.95;;;16.30;70.00;;;;;;5036901;28;20080;-69
2023/05/23 04:01:57;;;;;;;15.98;10.60;;;16.40;69.70;;;;;;5036808;28;20030;-65
2023/05/23 04:04:24;;;;;;;13.95;9.82;;;16.50;69.60;;;;;;5036611;28;20112;-66
2023/05/23 04:06:51;;;;;;;14.23;10.40;;;16.50;69.40;;;;;;5036377;28;20037;-66
2023/05/23 04:09:17;;;;;;;14.55;10.20;;;16.60;69.20;;;;;;5036453;28;20121;-67
2023/05/23 04:11:43;;;;;;;15.15;9.85;;;16.60;69.10;;;;;;5036377;28;20105;-67
2023/05/23 04:14:09;;;;;;;14.80;10.07;;;16.70;68.90;;;;;;5036261;28;20121;-68
2023/05/23 04:16:36;;;;;;;13.95;10.65;;;16.80;68.80;;;;;;5036215;28;20354;-66
2023/05/23 04:19:05;;;;;;;14.70;10.63;;;16.90;68.60;;;;;;5034916;28;20025;-69
2023/05/23 04:21:31;;;;;;;14.10;9.90;;;16.90;68.40;;;;;;5036457;28;20101;-69
2023/05/23 04:23:57;;;;;;;14.90;10.63;;;17.10;68.20;;;;;;5036233;28;20163;-67
2023/05/23 04:26:24;;;;;;;15.50;11.20;;;17.20;68.00;;;;;;5035865;28;20124;-69
2023/05/23 04:28:53;;;;;;;17.30;11.20;;;17.40;67.80;;;;;;5035981;28;20513;-67
2023/05/23 04:31:21;;;;;;;14.27;10.40;;;17.60;67.50;;;;;;5035989;28;20026;-69
2023/05/23 04:33:48;;;;;;;16.45;10.43;;;17.80;67.00;;;;;;5035980;28;20040;-69
2023/05/23 04:36:15;;;;;;;15.13;10.35;;;18.00;67.00;;;;;;5035871;28;20111;-67
2023/05/23 04:38:41;;;;;;;15.27;10.73;;;18.20;66.40;;;;;;5035818;28;20355;-68
2023/05/23 04:41:10;;;;;;;17.75;12.05;;;18.60;66.10;;;;;;5036021;28;20025;-67
2023/05/23 04:43:41;;;;;;;17.35;10.80;;;19.00;65.50;;;;;;5035108;28;20155;-69
2023/05/23 04:46:09;;;;;;;14.05;10.50;;;19.70;64.70;;;;;;5035699;28;20104;-69
2023/05/23 04:48:36;;;;;;;15.60;10.75;;;20.40;63.50;;;;;;5035984;28;20154;-68
2023/05/23 04:51:06;;;;;;;15.50;10.00;;;21.10;62.60;;;;;;5035623;28;20060;-67
2023/05/23 04:53:32;;;;;;;13.18;10.00;;;21.90;61.20;;;;;;5035912;28;20045;-66
2023/05/23 04:55:58;;;;;;;14.35;9.90;;;22.70;59.80;;;;;;5035815;28;20053;-66
2023/05/23 04:58:24;;;;;;;14.05;10.23;;;23.50;58.40;;;;;;5035861;28;20406;-68
2023/05/23 05:00:50;;;;;;;12.93;9.45;;;24.20;57.00;;;;;;5035757;28;20442;-68
2023/05/23 05:03:16;;;;;;;14.27;10.43;;;24.90;55.70;;;;;;5035661;28;20064;-69
2023/05/23 05:05:42;;;;;;;15.02;9.05;;;25.60;54.50;;;;;;5035365;28;20097;-69
2023/05/23 05:08:08;;;;;;;13.80;9.32;;;26.20;53.40;;;;;;5035405;28;20049;-67
2023/05/23 05:10:34;;;;;;;12.32;9.82;;;26.90;52.10;;;;;;5035403;28;20347;-66
2023/05/23 05:13:00;;;;;;;13.93;9.40;;;27.50;50.80;;;;;;5035258;28;20029;-67
2023/05/23 05:15:25;;;;;;;14.65;9.82;;;28.20;49.60;;;;;;5035423;28;20021;-67
2023/05/23 05:17:52;;;;;;;11.38;8.90;;;28.80;48.50;;;;;;5035499;28;20025;-68
2023/05/23 05:20:18;;;;;;;13.00;8.80;;;29.40;47.40;;;;;;5034237;28;20026;-69
2023/05/23 05:22:44;;;;;;;13.30;9.13;;;29.90;46.40;;;;;;5034197;28;20025;-65
2023/05/23 05:25:10;;;;;;;12.30;9.43;;;30.50;45.70;;;;;;5034915;28;20164;-69
2023/05/23 05:27:39;;;;;;;11.43;8.43;;;31.00;44.90;;;;;;5035159;28;20100;-67
2023/05/23 05:30:08;;;;;;;13.30;9.27;;;31.50;44.10;;;;;;5035053;28;20029;-68
2023/05/23 05:32:35;;;;;;;13.00;9.07;;;32.10;43.00;;;;;;5034685;28;20026;-67
2023/05/23 05:35:02;;;;;;;12.63;7.97;;;32.50;42.10;;;;;;5035150;28;20033;-70
2023/05/23 05:37:28;;;;;;;13.57;9.23;;;32.90;41.50;;;;;;5035024;28;20195;-67
2023/05/23 05:39:55;;;;;;;12.90;8.43;;;33.30;40.90;;;;;;5035283;28;20458;-69
2023/05/23 05:42:21;;;;;;;11.15;8.27;;;33.70;40.50;;;;;;5035024;28;20038;-67
2023/05/23 05:44:48;;;;;;;11.05;8.02;;;34.10;39.90;;;;;;5035030;28;20462;-69
2023/05/23 05:47:15;;;;;;;12.07;8.38;;;34.70;39.30;;;;;;5035243;28;20104;-67
2023/05/23 05:49:41;;;;;;;11.98;8.15;;;35.20;38.70;;;;;;5034575;28;20032;-69
2023/05/23 05:52:07;;;;;;;12.43;8.30;;;35.80;37.90;;;;;;5034979;28;20018;-70
2023/05/23 05:54:33;;;;;;;11.75;8.23;;;36.40;37.20;;;;;;5035143;28;20087;-67
2023/05/23 05:56:59;;;;;;;11.82;8.98;;;36.90;36.50;;;;;;5035182;28;20029;-67
2023/05/23 05:59:25;;;;;;;12.88;9.25;;;37.50;35.80;;;;;;5034894;28;20100;-70
2023/05/23 06:01:52;;;;;;;13.00;10.30;;;37.90;34.70;;;;;;5035386;28;20025;-68
2023/05/23 06:04:18;;;;;;;14.07;10.07;;;38.20;34.10;;;;;;5034754;28;20451;-65
2023/05/23 06:06:44;;;;;;;13.48;9.43;;;38.50;33.90;;;;;;5035053;28;20072;-65
2023/05/23 06:09:10;;;;;;;12.40;9.68;;;38.90;33.50;;;;;;5035258;28;20447;-68
2023/05/23 06:11:39;;;;;;;13.90;8.95;;;39.30;32.80;;;;;;5034733;28;20045;-67
2023/05/23 06:14:06;;;;;;;14.05;9.27;;;39.70;32.10;;;;;;5035171;28;20097;-67
2023/05/23 06:16:33;;;;;;;13.05;8.73;;;40.30;31.40;;;;;;5034973;28;20021;-69
2023/05/23 06:18:58;;;;;;;14.35;10.15;;;40.60;30.90;;;;;;5034975;28;20422;-67
2023/05/23 06:21:25;;;;;;;12.30;8.52;;;40.90;30.40;;;;;;5034689;28;20022;-71
2023/05/23 06:23:51;;;;;;;12.00;8.05;;;41.40;30.00;;;;;;5034582;28;20029;-67
2023/05/23 06:26:20;;;;;;;10.90;8.45;;;41.70;29.50;;;;;;5034264;28;20044;-65
2023/05/23 06:28:45;;;;;;;9.93;7.65;;;42.00;29.10;;;;;;5035144;28;20026;-67
2023/05/23 06:31:11;;;;;;;11.90;8.10;;;42.40;28.60;;;;;;5034564;28;20442;-65
2023/05/23 06:33:37;;;;;;;9.73;7.32;;;42.80;28.00;;;;;;5034499;28;20462;-68
2023/05/23 06:36:04;;;;;;;11.60;7.53;;;43.00;27.40;;;;;;5034451;28;20053;-67
2023/05/23 06:38:32;;;;;;;11.52;8.25;;;43.40;26.80;;;;;;5034252;28;20447;-66
2023/05/23 06:40:59;;;;;;;11.82;7.85;;;43.70;26.20;;;;;;5033492;28;20029;-66
2023/05/23 06:43:25;;;;;;;12.23;7.47;;;43.80;25.70;;;;;;5036796;28;20030;-67
2023/05/23 06:45:51;;;;;;;11.52;7.82;;;43.30;26.00;;;;;;5056277;28;20557;-67
2023/05/23 06:48:17;;;;;;;11.05;7.60;;;42.30;26.40;;;;;;5057862;28;20104;-67
2023/05/23 06:50:43;;;;;;;11.75;7.60;;;41.10;27.40;;;;;;5058038;28;20021;-67
2023/05/23 06:53:09;;;;;;;12.77;7.80;;;39.90;28.70;;;;;;5057685;28;20370;-67
2023/05/23 06:55:35;;;;;;;11.73;7.75;;;38.70;29.80;;;;;;5057867;28;20027;-66
2023/05/23 06:58:03;;;;;;;15.45;7.72;;;37.60;31.00;;;;;;5057891;28;20051;-67
2023/05/23 07:00:30;;;;;;;12.38;7.45;;;36.70;32.20;;;;;;5057009;28;20029;-67
2023/05/23 07:03:00;;;;;;;12.60;7.85;;;35.90;33.10;;;;;;5055948;28;20047;-67
2023/05/23 07:05:29;;;;;;;12.15;7.72;;;35.40;33.90;;;;;;5057508;28;20025;-68
2023/05/23 07:07:55;;;;;;;10.68;7.22;;;34.90;34.60;;;;;;5057734;28;20078;-67
2023/05/23 07:10:21;;;;;;;11.95;6.70;;;34.40;35.20;;;;;;5057908;28;20029;-67
2023/05/23 07:12:47;;;;;;;10.57;6.72;;;34.10;35.50;;;;;;5057913;28;20100;-67
2023/05/23 07:15:13;;;;;;;10.88;6.57;;;33.90;35.70;;;;;;5057468;28;20029;-67
2023/05/23 07:17:40;;;;;;;10.27;6.22;;;33.60;35.80;;;;;;5057239;28;20037;-67
2023/05/23 07:20:07;;;;;;;8.98;6.20;;;33.40;36.20;;;;;;5057454;28;20095;-67
2023/05/23 07:22:33;;;;;;;8.43;5.93;;;33.30;36.40;;;;;;5057177;28;20025;-66
2023/05/23 07:24:58;;;;;;;8.60;6.00;;;33.20;36.40;;;;;;5056756;28;20143;-67
2023/05/23 07:27:26;;;;;;;10.43;6.65;;;33.10;36.40;;;;;;5057655;28;20044;-67
2023/05/23 07:29:52;;;;;;;9.95;6.40;;;33.00;36.50;;;;;;5057324;28;20025;-67
2023/05/23 07:32:18;;;;;;;12.20;6.55;;;32.90;36.70;;;;;;5057547;28;20104;-67
2023/05/23 07:34:44;;;;;;;11.57;6.72;;;32.90;36.90;;;;;;5057201;28;20035;-67
2023/05/23 07:37:10;;;;;;;8.23;6.32;;;32.80;37.00;;;;;;5057469;28;20029;-67
2023/05/23 07:39:36;;;;;;;9.60;6.38;;;32.80;37.10;;;;;;5057150;28;20021;-66
2023/05/23 07:42:02;;;;;;;9.90;6.05;;;32.70;37.30;;;;;;5057435;28;20040;-67
2023/05/23 07:44:28;;;;;;;10.85;6.22;;;32.60;37.30;;;;;;5056871;28;20025;-67
2023/05/23 07:46:54;;;;;;;12.10;7.00;;;32.50;37.60;;;;;;5057080;28;20040;-67
2023/05/23 07:49:20;;;;;;;8.38;5.80;;;32.50;37.60;;;;;;5056726;28;20071;-67
2023/05/23 07:51:46;;;;;;;9.23;6.47;;;32.40;37.60;;;;;;5056661;28;20103;-67
2023/05/23 07:54:12;;;;;;;10.23;6.20;;;32.40;37.70;;;;;;5055858;28;20067;-67
2023/05/23 07:56:38;;;;;;;10.23;6.40;;;32.30;37.90;;;;;;5056553;28;20057;-66
2023/05/23 07:59:04;;;;;;;9.85;6.45;;;32.40;38.00;;;;;;5055555;28;20021;-67
2023/05/23 08:01:30;;;;;;;8.63;6.13;;;32.40;37.80;;;;;;5056456;28;20090;-67
2023/05/23 08:03:56;;;;;;;8.30;6.25;;;32.40;37.80;;;;;;5056333;28;20093;-68
2023/05/23 08:06:22;;;;;;;9.20;6.00;;;32.30;38.00;;;;;;5056426;28;20442;-67
2023/05/23 08:08:48;;;;;;;9.02;5.80;;;32.30;38.10;;;;;;5056600;28;20043;-67
2023/05/23 08:11:14;;;;;;;11.18;6.35;;;32.30;38.20;;;;;;5056727;28;20383;-67
2023/05/23 08:13:40;;;;;;;10.93;6.40;;;32.20;38.30;;;;;;5056492;28;20025;-67
2023/05/23 08:16:06;;;;;;;10.15;6.68;;;32.20;38.40;;;;;;5056393;28;20029;-67
2023/05/23 08:18:32;;;;;;;8.60;6.22;;;32.00;38.50;;;;;;5056679;28;20047;-66
2023/05/23 08:20:58;;;;;;;8.55;6.30;;;31.90;38.70;;;;;;5056108;28;20458;-67
2023/05/23 08:23:24;;;;;;;7.72;5.28;;;31.90;38.50;;;;;;5056211;28;20316;-67
2023/05/23 08:25:51;;;;;;;7.45;5.63;;;31.90;38.60;;;;;;5055659;28;20049;-69
2023/05/23 08:28:17;;;;;;;8.55;5.95;;;31.90;38.50;;;;;;5055962;28;20018;-68
2023/05/23 08:30:43;;;;;;;7.68;6.25;;;31.90;38.50;;;;;;5055971;28;20066;-67
2023/05/23 08:33:09;;;;;;;8.55;5.97;;;31.90;38.50;;;;;;5055893;28;20146;-66
2023/05/23 08:35:35;;;;;;;10.48;6.15;;;31.80;38.50;;;;;;5055581;28;20438;-67
2023/05/23 08:38:03;;;;;;;7.65;5.35;;;31.80;38.60;;;;;;5046342;28;20093;-67
2023/05/23 08:40:30;;;;;;;8.82;5.70;;;31.80;38.60;;;;;;5035851;28;20036;-67
2023/05/23 08:42:56;;;;;;;8.43;6.03;;;31.70;38.60;;;;;;5035996;28;20040;-67
2023/05/23 08:45:22;;;;;;;9.18;6.50;;;31.70;38.50;;;;;;5035541;28;20111;-67
2023/05/23 08:47:51;;;;;;;9.35;6.47;;;31.70;38.60;;;;;;5035579;28;20053;-67
2023/05/23 08:50:18;;;;;;;10.32;6.28;;;31.70;38.40;;;;;;5036099;28;20036;-67
2023/05/23 08:52:49;;;;;;;9.50;6.07;;;31.70;38.70;;;;;;5035709;28;20065;-67
2023/05/23 08:55:17;;;;;;;8.68;6.40;;;31.60;38.90;;;;;;5035691;28;20405;-66
2023/05/23 08:57:44;;;;;;;10.25;6.65;;;31.60;38.90;;;;;;5034627;28;20347;-67
2023/05/23 09:00:15;;;;;;;11.60;6.45;;;31.60;38.80;;;;;;5035524;28;20044;-66
2023/05/23 09:02:45;;;;;;;11.35;6.72;;;31.70;38.90;;;;;;5035436;28;20084;-67
2023/05/23 09:05:12;;;;;;;10.45;6.43;;;31.70;38.90;;;;;;5034868;28;20025;-67
2023/05/23 09:07:39;;;;;;;8.77;5.85;;;31.80;39.00;;;;;;5033467;28;20029;-67
2023/05/23 09:10:07;;;;;;;10.45;6.50;;;31.70;38.80;;;;;;5035367;28;20059;-67
2023/05/23 09:12:35;;;;;;;8.60;6.30;;;31.70;38.80;;;;;;5035896;28;20101;-67
2023/05/23 09:15:06;;;;;;;8.10;6.07;;;31.70;38.80;;;;;;5034273;28;20116;-67
2023/05/23 09:17:32;;;;;;;10.38;6.20;;;31.70;38.70;;;;;;5035310;28;20040;-67
2023/05/23 09:19:59;;;;;;;7.65;5.47;;;31.60;38.60;;;;;;5035535;28;20057;-67
2023/05/23 09:22:26;;;;;;;12.32;6.60;;;31.50;38.40;;;;;;5035176;28;20029;-68
2023/05/23 09:24:55;;;;;;;9.15;6.13;;;31.50;38.50;;;;;;5034706;28;20053;-67
2023/05/23 09:27:22;;;;;;;9.75;6.90;;;31.50;38.60;;;;;;5035378;28;20112;-67
2023/05/23 09:29:49;;;;;;;11.43;6.70;;;31.40;38.70;;;;;;5035388;28;20037;-67
2023/05/23 09:32:16;;;;;;;9.55;6.78;;;31.40;38.90;;;;;;5034940;28;20056;-67
2023/05/23 09:34:53;;;;;;;9.02;6.40;;;31.40;39.00;;;;;;5035034;28;20554;-67
2023/05/23 09:37:23;;;;;;;13.45;7.85;;;31.40;38.80;;;;;;5035602;28;20462;-67
2023/05/23 09:39:49;;;;;;;10.13;6.53;;;31.30;39.20;;;;;;5035023;28;20451;-67
2023/05/23 09:42:22;;;;;;;11.77;7.13;;;31.20;39.40;;;;;;5035275;28;20036;-67
2023/05/23 09:44:49;;;;;;;9.18;6.45;;;31.20;39.30;;;;;;5035190;28;20196;-67
2023/05/23 09:47:16;;;;;;;11.00;6.68;;;31.20;39.70;;;;;;5035270;28;20435;-67
2023/05/23 09:49:46;;;;;;;10.80;7.07;;;31.20;39.80;;;;;;5035220;28;20025;-67
2023/05/23 09:52:12;;;;;;;11.55;6.70;;;31.20;39.80;;;;;;5035175;28;20111;-67
2023/05/23 09:54:38;;;;;;;10.05;6.30;;;31.10;39.90;;;;;;5034826;28;20409;-66
2023/05/23 09:57:11;;;;;;;9.52;6.38;;;31.00;40.00;;;;;;5051170;28;20443;-67
2023/05/23 09:59:44;;;;;;;8.03;6.53;;;31.00;40.20;;;;;;5034902;28;20044;-67
2023/05/23 10:02:15;;;;;;;10.70;7.15;;;31.00;40.40;;;;;;5035349;28;20346;-67
2023/05/23 10:04:42;;;;;;;11.77;7.35;;;31.10;40.30;;;;;;5035138;28;20029;-66
2023/05/23 10:07:21;;;;;;;9.20;6.95;;;31.10;40.20;;;;;;5035040;28;20041;-67
2023/05/23 10:09:55;;;;;;;9.73;6.15;;;31.00;40.00;;;;;;5050255;28;20470;-67
2023/05/23 10:12:45;;;;;;;9.43;7.35;;;31.10;40.10;;;;;;5035030;28;20040;-67
2023/05/23 10:15:15;;;;;;;10.32;7.40;;;31.10;40.40;;;;;;5051092;28;20041;-67
2023/05/23 10:17:47;;;;;;;9.85;6.43;;;31.10;40.40;;;;;;5034802;28;20036;-67
2023/05/23 10:20:15;;;;;;;10.20;7.13;;;31.10;40.60;;;;;;5038734;28;20109;-67
2023/05/23 10:22:42;;;;;;;10.18;7.18;;;31.10;40.60;;;;;;5038969;28;20110;-67
2023/05/23 10:25:12;;;;;;;9.05;6.85;;;31.10;40.60;;;;;;5037015;28;20374;-67
2023/05/23 10:27:38;;;;;;;9.43;6.80;;;31.10;40.60;;;;;;5038581;28;20029;-67
2023/05/23 10:30:08;;;;;;;10.05;6.63;;;31.20;40.50;;;;;;5038347;28;20021;-67
2023/05/23 10:32:35;;;;;;;8.77;6.50;;;31.20;40.60;;;;;;5038533;28;20045;-67
2023/05/23 10:35:10;;;;;;;9.30;6.15;;;31.20;40.60;;;;;;5038426;28;20049;-67
2023/05/23 10:38:01;;;;;;;9.70;6.93;;;31.30;40.60;;;;;;5037203;28;20359;-67
2023/05/23 10:40:39;;;;;;;9.13;7.07;;;31.30;40.50;;;;;;5038357;28;20036;-67
2023/05/23 10:43:23;;;;;;;9.68;6.80;;;31.20;40.50;;;;;;5038329;28;20048;-67
2023/05/23 10:45:50;;;;;;;8.80;6.78;;;31.20;40.80;;;;;;5038431;28;20104;-69
2023/05/23 10:48:40;;;;;;;9.85;6.90;;;31.20;41.00;;;;;;5037972;28;20129;-67
2023/05/23 10:51:10;;;;;;;12.10;6.55;;;31.30;40.90;;;;;;5037927;28;20079;-67
2023/05/23 10:53:38;;;;;;;10.65;6.47;;;31.30;40.80;;;;;;5038181;28;20032;-67
2023/05/23 10:56:06;;;;;;;8.75;6.65;;;31.30;40.90;;;;;;5037777;28;20395;-68
2023/05/23 10:58:33;;;;;;;10.75;6.38;;;31.20;41.00;;;;;;5038277;28;20490;-67
2023/05/23 11:01:01;;;;;;;9.57;6.32;;;31.20;41.00;;;;;;5037994;28;20031;-67
2023/05/23 11:03:45;;;;;;;8.77;6.22;;;31.20;40.80;;;;;;5036679;28;20049;-67
2023/05/23 11:06:34;;;;;;;12.63;7.53;;;31.30;40.90;;;;;;5037884;28;20056;-67
2023/05/23 11:09:05;;;;;;;9.95;6.90;;;31.30;41.00;;;;;;5037646;28;20026;-68
2023/05/23 11:11:52;;;;;;;11.13;7.68;;;31.20;41.10;;;;;;5053253;28;20017;-67
2023/05/23 11:14:38;;;;;;;10.85;7.60;;;31.20;41.30;;;;;;5038017;28;20041;-68
2023/05/23 11:17:18;;;;;;;8.65;6.65;;;31.10;41.50;;;;;;5030405;28;20048;-67
2023/05/23 11:19:56;;;;;;;10.93;7.68;;;31.20;41.50;;;;;;5037622;28;20033;-67
2023/05/23 11:22:26;;;;;;;11.32;7.03;;;31.30;41.50;;;;;;5037623;28;20029;-68
2023/05/23 11:24:53;;;;;;;9.77;7.07;;;31.30;41.20;;;;;;5052719;28;20029;-67
2023/05/23 11:27:34;;;;;;;11.55;7.32;;;31.30;41.30;;;;;;5037816;28;20111;-67
2023/05/23 11:30:00;;;;;;;9.27;6.70;;;31.30;41.50;;;;;;5036499;28;20056;-68
2023/05/23 11:32:35;;;;;;;9.80;6.53;;;31.20;41.40;;;;;;5037408;28;20351;-68
2023/05/23 11:35:03;;;;;;;8.75;6.60;;;31.20;41.10;;;;;;5037348;28;20025;-67
2023/05/23 11:37:30;;;;;;;9.73;6.35;;;31.30;41.10;;;;;;5052767;28;20036;-67
2023/05/23 11:39:56;;;;;;;9.38;6.20;;;31.40;40.90;;;;;;5037033;28;20032;-67
2023/05/23 11:42:23;;;;;;;8.30;5.68;;;31.40;40.60;;;;;;5036995;28;20080;-68
2023/05/23 11:44:50;;;;;;;7.75;5.82;;;31.40;40.50;;;;;;5036742;28;20415;-67
2023/05/23 11:47:17;;;;;;;8.98;6.40;;;31.40;40.00;;;;;;5036860;28;20438;-67
2023/05/23 11:49:45;;;;;;;8.13;5.90;;;31.40;39.70;;;;;;5036828;28;20045;-68
2023/05/23 11:52:11;;;;;;;9.02;6.18;;;31.40;39.70;;;;;;5037071;28;20109;-67
2023/05/23 11:54:41;;;;;;;8.27;5.90;;;31.50;39.70;;;;;;5036720;28;20053;-67
2023/05/23 11:57:07;;;;;;;7.07;5.65;;;31.50;39.40;;;;;;5036989;28;20104;-68
2023/05/23 11:59:33;;;;;;;7.90;5.80;;;31.50;39.50;;;;;;5036640;28;20445;-67
2023/05/23 12:02:01;;;;;;;8.25;5.25;;;31.50;39.50;;;;;;5035889;28;20079;-67
2023/05/23 12:04:27;;;;;;;7.68;5.70;;;31.60;39.10;;;;;;5038110;28;20021;-67
2023/05/23 12:06:53;;;;;;;6.13;4.90;;;31.70;39.00;;;;;;5037764;28;20178;-67
2023/05/23 12:09:20;;;;;;;7.72;5.45;;;31.70;38.90;;;;;;5037330;28;20087;-67
2023/05/23 12:11:48;;;;;;;10.18;5.82;;;31.80;38.80;;;;;;5036658;28;20025;-68
2023/05/23 12:14:16;;;;;;;7.53;5.82;;;31.90;38.50;;;;;;5036587;28;20022;-67
2023/05/23 12:16:48;;;;;;;9.10;5.22;;;31.90;38.40;;;;;;5036323;28;20040;-67
2023/05/23 12:19:16;;;;;;;8.23;6.00;;;31.90;38.20;;;;;;5035383;28;20033;-67
2023/05/23 12:21:44;;;;;;;7.65;5.43;;;31.90;38.10;;;;;;5051815;28;20090;-68
2023/05/23 12:24:18;;;;;;;10.00;5.65;;;31.90;38.00;;;;;;5035994;28;20435;-68
2023/05/23 12:26:50;;;;;;;11.25;5.60;;;31.90;37.90;;;;;;5035948;28;20053;-67
2023/05/23 12:29:18;;;;;;;7.97;5.50;;;31.90;37.60;;;;;;5036134;28;20358;-68
2023/05/23 12:31:47;;;;;;;7.88;5.90;;;31.90;37.70;;;;;;5036055;28;20017;-68
2023/05/23 12:34:13;;;;;;;7.60;5.53;;;31.90;37.50;;;;;;5036151;28;20033;-67
2023/05/23 12:36:41;;;;;;;7.97;5.60;;;32.00;37.10;;;;;;5034958;28;20114;-67
2023/05/23 12:39:08;;;;;;;8.55;5.78;;;31.90;37.10;;;;;;5036126;28;20034;-68
2023/05/23 12:41:34;;;;;;;7.32;5.35;;;31.90;37.30;;;;;;5036151;28;20358;-67
2023/05/23 12:44:01;;;;;;;9.82;5.90;;;31.80;37.40;;;;;;5035716;28;20037;-67